createdAt,value
2018-10-01T00:03:13.781Z,1013.4
2018-10-01T00:08:14.318Z,1013.4
2018-10-01T00:13:14.199Z,1013.3
2018-10-01T00:18:26.371Z,1013.2
2018-10-01T00:23:26.344Z,1013.2
2018-10-01T00:28:26.255Z,1013.1
2018-10-01T00:33:26.209Z,1013
2018-10-01T00:38:26.656Z,1013
2018-10-01T00:43:26.598Z,1012.9
2018-10-01T00:48:26.300Z,1012.9
2018-10-01T00:53:26.396Z,1012.9
2018-10-01T00:58:26.603Z,1013
2018-10-01T01:03:38.488Z,1012.8
2018-10-01T01:08:38.431Z,1012.8
2018-10-01T01:13:38.236Z,1012.9
2018-10-01T01:18:38.269Z,1012.8
2018-10-01T01:23:38.245Z,1012.6
2018-10-01T01:28:38.439Z,1012.7
2018-10-01T01:33:38.396Z,1012.7
2018-10-01T01:38:43.025Z,1012.8
2018-10-01T01:43:42.771Z,1012.8
2018-10-01T01:48:54.541Z,1012.7
2018-10-01T01:53:54.385Z,1012.6
2018-10-01T01:58:54.328Z,1012.5
2018-10-01T02:03:54.206Z,1012.5
2018-10-01T02:08:54.396Z,1012.5
2018-10-01T02:13:54.218Z,1012.4
2018-10-01T02:18:54.238Z,1012.4
2018-10-01T02:23:54.984Z,1012.4
2018-10-01T02:28:54.993Z,1012.4
2018-10-01T02:34:07.121Z,1012.3
2018-10-01T02:39:06.998Z,1012.3
2018-10-01T02:44:07.024Z,1012.3
2018-10-01T02:49:06.847Z,1012.2
2018-10-01T02:54:06.986Z,1012.1
2018-10-01T02:59:07.503Z,1012
2018-10-01T03:04:07.094Z,1012
2018-10-01T03:09:07.205Z,1012
2018-10-01T03:14:07.164Z,1011.9
2018-10-01T03:19:19.222Z,1012
2018-10-01T03:24:19.208Z,1011.9
2018-10-01T03:29:18.966Z,1011.9
2018-10-01T03:34:19.204Z,1011.9
2018-10-01T03:39:19.171Z,1011.8
2018-10-01T03:44:19.110Z,1011.8
2018-10-01T03:49:19.120Z,1011.7
2018-10-01T03:54:18.948Z,1011.7
2018-10-01T03:59:19.099Z,1011.7
2018-10-01T04:04:30.985Z,1011.5
2018-10-01T04:09:30.848Z,1011.7
2018-10-01T04:14:30.691Z,1011.7
2018-10-01T04:19:30.910Z,1011.6
2018-10-01T04:24:30.739Z,1011.7
2018-10-01T04:29:30.840Z,1011.6
2018-10-01T04:34:30.911Z,1011.5
2018-10-01T04:39:30.839Z,1011.4
2018-10-01T04:44:31.076Z,1011.5
2018-10-01T04:49:43.057Z,1011.5
2018-10-01T04:54:42.916Z,1011.4
2018-10-01T04:59:42.961Z,1011.5
2018-10-01T05:04:42.777Z,1011.5
2018-10-01T05:09:42.864Z,1011.5
2018-10-01T05:14:43.264Z,1011.6
2018-10-01T05:19:43.037Z,1011.7
2018-10-01T05:24:42.843Z,1011.7
2018-10-01T05:29:42.962Z,1011.8
2018-10-01T05:34:54.749Z,1011.8
2018-10-01T05:39:54.631Z,1011.9
2018-10-01T05:44:54.643Z,1011.9
2018-10-01T05:49:54.434Z,1011.9
2018-10-01T05:54:54.571Z,1011.8
2018-10-01T05:59:54.414Z,1011.7
2018-10-01T06:04:55.022Z,1011.8
2018-10-01T06:09:54.593Z,1011.8
2018-10-01T06:14:54.622Z,1011.8
2018-10-01T06:19:54.462Z,1012
2018-10-01T06:24:54.596Z,1012
2018-10-01T06:29:54.680Z,1011.8
2018-10-01T06:34:54.571Z,1011.7
2018-10-01T06:39:54.710Z,1011.8
2018-10-01T06:45:06.719Z,1011.7
2018-10-01T06:50:06.654Z,1011.8
2018-10-01T06:55:06.714Z,1011.8
2018-10-01T07:00:06.593Z,1011.9
2018-10-01T07:05:06.643Z,1011.9
2018-10-01T07:10:06.460Z,1012
2018-10-01T07:15:06.473Z,1011.9
2018-10-01T07:20:06.525Z,1011.9
2018-10-01T07:25:06.692Z,1012
2018-10-01T07:30:19.753Z,1011.9
2018-10-01T07:35:22.543Z,1011.9
2018-10-01T07:40:19.704Z,1012
2018-10-01T07:45:20.330Z,1011.9
2018-10-01T07:50:19.492Z,1011.9
2018-10-01T07:55:19.438Z,1011.9
2018-10-01T08:00:19.833Z,1012
2018-10-01T08:05:19.633Z,1012.1
2018-10-01T08:10:19.719Z,1012.2
2018-10-01T08:15:19.634Z,1012.4
2018-10-01T08:20:19.719Z,1012.4
2018-10-01T08:25:19.462Z,1012.4
2018-10-01T08:30:21.802Z,1012.4
2018-10-01T08:35:21.790Z,1012.4
2018-10-01T08:40:33.609Z,1012.3
2018-10-01T08:45:36.288Z,1012.4
2018-10-01T08:50:34.036Z,1012.5
2018-10-01T08:55:33.344Z,1012.6
2018-10-01T09:00:33.349Z,1012.7
2018-10-01T09:05:34.063Z,1012.7
2018-10-01T09:10:33.521Z,1012.6
2018-10-01T09:15:33.361Z,1012.7
2018-10-01T09:20:33.718Z,1012.8
2018-10-01T09:25:48.261Z,1012.8
2018-10-01T09:30:48.269Z,1012.8
2018-10-01T09:35:48.219Z,1012.6
2018-10-01T09:40:47.975Z,1012.8
2018-10-01T09:45:47.991Z,1012.7
2018-10-01T09:50:48.096Z,1012.7
2018-10-01T09:55:48.031Z,1012.6
2018-10-01T10:00:53.246Z,1012.7
2018-10-01T10:05:52.956Z,1012.7
2018-10-01T10:11:05.532Z,1012.8
2018-10-01T10:16:05.706Z,1013
2018-10-01T10:21:05.416Z,1013
2018-10-01T10:26:05.671Z,1013
2018-10-01T10:31:05.245Z,1013.1
2018-10-01T10:36:05.259Z,1013
2018-10-01T10:41:05.243Z,1013.1
2018-10-01T10:46:05.793Z,1013.1
2018-10-01T10:51:05.718Z,1013
2018-10-01T10:56:18.215Z,1013
2018-10-01T11:01:17.721Z,1013
2018-10-01T11:06:17.763Z,1013
2018-10-01T11:11:17.887Z,1013
2018-10-01T11:16:17.906Z,1012.8
2018-10-01T11:21:18.389Z,1012.9
2018-10-01T11:26:17.770Z,1012.8
2018-10-01T11:31:18.650Z,1012.9
2018-10-01T11:36:18.338Z,1012.8
2018-10-01T11:41:30.685Z,1012.9
2018-10-01T11:46:30.422Z,1013
2018-10-01T11:51:30.698Z,1013
2018-10-01T11:56:30.642Z,1013
2018-10-01T12:01:30.442Z,1013.1
2018-10-01T12:06:30.605Z,1013
2018-10-01T12:11:30.664Z,1013.1
2018-10-01T12:16:30.453Z,1013.1
2018-10-01T12:21:30.786Z,1013.1
2018-10-01T12:26:42.318Z,1013.1
2018-10-01T12:31:42.240Z,1013.2
2018-10-01T12:36:42.351Z,1013.2
2018-10-01T12:41:42.053Z,1013.3
2018-10-01T12:46:42.169Z,1013.3
2018-10-01T12:51:42.565Z,1013.3
2018-10-01T12:56:43.497Z,1013.4
2018-10-01T13:01:42.248Z,1013.4
2018-10-01T13:06:43.020Z,1013.4
2018-10-01T13:11:42.075Z,1013.4
2018-10-01T13:16:42.250Z,1013.4
2018-10-01T13:21:42.223Z,1013.5
2018-10-01T13:26:42.063Z,1013.5
2018-10-01T13:31:42.293Z,1013.6
2018-10-01T13:36:54.594Z,1013.7
2018-10-01T13:41:54.228Z,1013.7
2018-10-01T13:46:54.245Z,1013.9
2018-10-01T13:51:54.268Z,1013.9
2018-10-01T13:56:54.143Z,1013.7
2018-10-01T14:01:54.670Z,1013.7
2018-10-01T14:06:54.035Z,1013.7
2018-10-01T14:11:54.061Z,1013.7
2018-10-01T14:16:54.216Z,1013.7
2018-10-01T14:22:06.345Z,1013.9
2018-10-01T14:27:06.081Z,1013.9
2018-10-01T14:32:06.062Z,1013.9
2018-10-01T14:37:06.225Z,1014
2018-10-01T14:42:06.703Z,1014.1
2018-10-01T14:47:08.912Z,1014.2
2018-10-01T14:52:08.563Z,1014.1
2018-10-01T14:57:08.720Z,1014.2
2018-10-01T15:02:08.746Z,1014.3
2018-10-01T15:07:08.715Z,1014.3
2018-10-01T15:12:12.628Z,1014.3
2018-10-01T15:17:12.337Z,1014.4
2018-10-01T15:22:12.374Z,1014.5
2018-10-01T15:27:12.158Z,1014.4
2018-10-01T15:32:23.668Z,1014.5
2018-10-01T15:37:23.550Z,1014.8
2018-10-01T15:42:23.403Z,1014.8
2018-10-01T15:47:23.656Z,1014.9
2018-10-01T15:52:23.636Z,1014.8
2018-10-01T15:57:23.520Z,1014.8
2018-10-01T16:02:23.522Z,1014.8
2018-10-01T16:07:23.524Z,1014.9
2018-10-01T16:12:23.527Z,1015
2018-10-01T16:17:34.506Z,1014.9
2018-10-01T16:27:34.587Z,1015.1
2018-10-01T16:32:34.337Z,1015
2018-10-01T16:37:34.319Z,1015.1
2018-10-01T16:47:34.277Z,1015.2
2018-10-01T16:52:34.228Z,1015.4
2018-10-01T16:57:34.240Z,1015.5
2018-10-01T17:02:46.436Z,1015.5
2018-10-01T17:07:45.930Z,1015.7
2018-10-01T17:12:46.209Z,1015.7
2018-10-01T17:17:46.130Z,1015.8
2018-10-01T17:22:47.596Z,1015.8
2018-10-01T17:27:45.941Z,1015.9
2018-10-01T17:32:48.951Z,1015.9
2018-10-01T17:37:48.817Z,1015.9
2018-10-01T17:42:48.373Z,1016
2018-10-01T17:47:58.304Z,1016.1
2018-10-01T17:52:58.272Z,1016.3
2018-10-01T17:57:58.333Z,1016.3
2018-10-01T18:02:58.140Z,1016.4
2018-10-01T18:07:58.250Z,1016.6
2018-10-01T18:12:58.186Z,1016.7
2018-10-01T18:17:58.708Z,1016.8
2018-10-01T18:23:00.671Z,1016.7
2018-10-01T18:28:00.712Z,1016.9
2018-10-01T18:33:11.647Z,1016.9
2018-10-01T18:38:11.356Z,1016.9
2018-10-01T18:43:11.522Z,1016.9
2018-10-01T18:48:11.750Z,1017
2018-10-01T18:53:11.740Z,1017.2
2018-10-01T18:58:11.568Z,1017.3
2018-10-01T19:03:11.629Z,1017.3
2018-10-01T19:08:13.042Z,1017.4
2018-10-01T19:13:12.956Z,1017.5
2018-10-01T19:18:25.449Z,1017.6
2018-10-01T19:23:25.366Z,1017.6
2018-10-01T19:28:25.349Z,1017.6
2018-10-01T19:33:25.720Z,1017.8
2018-10-01T19:38:25.351Z,1017.7
2018-10-01T19:43:25.588Z,1017.8
2018-10-01T19:48:29.850Z,1017.8
2018-10-01T19:53:25.267Z,1017.8
2018-10-01T19:58:25.105Z,1017.8
2018-10-01T20:03:25.538Z,1017.8
2018-10-01T20:08:25.153Z,1017.9
2018-10-01T20:13:25.163Z,1018
2018-10-01T20:18:25.103Z,1018.1
2018-10-01T20:23:25.385Z,1018.1
2018-10-01T20:28:37.955Z,1018.3
2018-10-01T20:33:36.553Z,1018.4
2018-10-01T20:38:36.472Z,1018.5
2018-10-01T20:43:36.661Z,1018.5
2018-10-01T20:48:36.600Z,1018.6
2018-10-01T20:53:36.629Z,1018.8
2018-10-01T20:58:36.469Z,1018.7
2018-10-01T21:03:39.210Z,1018.8
2018-10-01T21:08:39.469Z,1018.8
2018-10-01T21:13:49.960Z,1018.9
2018-10-01T21:18:49.827Z,1019
2018-10-01T21:23:49.841Z,1019.1
2018-10-01T21:28:49.886Z,1019.2
2018-10-01T21:33:49.836Z,1019.3
2018-10-01T21:38:49.689Z,1019.3
2018-10-01T21:43:49.885Z,1019.3
2018-10-01T21:48:50.340Z,1019.2
2018-10-01T21:53:49.821Z,1019.2
2018-10-01T21:58:49.996Z,1019.2
2018-10-01T22:03:49.833Z,1019.1
2018-10-01T22:08:49.945Z,1019.3
2018-10-01T22:13:49.848Z,1019.2
2018-10-01T22:18:49.847Z,1019.3
2018-10-01T22:24:00.674Z,1019.2
2018-10-01T22:29:00.508Z,1019.2
2018-10-01T22:34:00.612Z,1019.2
2018-10-01T22:39:00.628Z,1019.3
2018-10-01T22:44:00.594Z,1019.3
2018-10-01T22:49:00.589Z,1019.4
2018-10-01T22:54:00.607Z,1019.3
2018-10-01T22:59:01.224Z,1019.2
2018-10-01T23:04:01.047Z,1019.3
2018-10-01T23:09:13.288Z,1019.2
2018-10-01T23:14:13.031Z,1019.3
2018-10-01T23:19:13.273Z,1019.3
2018-10-01T23:24:13.224Z,1019.3
2018-10-01T23:29:13.029Z,1019.3
2018-10-01T23:34:13.068Z,1019.3
2018-10-01T23:39:13.187Z,1019.2
2018-10-01T23:44:13.080Z,1019.2
2018-10-01T23:49:13.212Z,1019.2
2018-10-01T23:54:13.302Z,1019.2
2018-10-01T23:59:13.330Z,1019.3
